Llaves, New Mexico
Current Conditions -  °F | °C
As of 1:15 PM on Thursday 18 Dec 2014 (Local Time) from KLAM Reporting Station
Broken Clouds Broken Clouds  
Wind Chill: 29°   Ceiling: 4300
Heat Index: 33°   Visibility: 10mi
Dew Point: 28°   Wind: 5mph
Humidity: 81%   Direction: 130°SE
Pressure: 30.08"   Gusts: NA
Location:  36.1222°N, 107.006°W
Report Text: KLAM 182015Z AUTO 13004KT 10SM SCT017 BKN043 BKN110 01/M02 A3008 RMK AO2 T00061023
Loading
Personal Weather Stations






























Interactive Weather Map New forecast layout! Learn more

10-Day Weather Forecast

Advertisements
Track Severe Weather on mobile